createdAt,value
2023-12-13T00:00:14.618Z,0.52
2023-12-13T00:01:14.693Z,0.52
2023-12-13T00:02:14.850Z,0.53
2023-12-13T00:03:14.783Z,0.53
2023-12-13T00:04:14.821Z,0.53
2023-12-13T00:05:14.832Z,0.54
2023-12-13T00:06:14.882Z,0.54
2023-12-13T00:07:14.958Z,0.53
2023-12-13T00:08:14.958Z,0.53
2023-12-13T00:09:15.000Z,0.53
2023-12-13T00:10:15.079Z,0.53
2023-12-13T00:11:15.112Z,0.53
2023-12-13T00:12:15.168Z,0.53
2023-12-13T00:13:15.234Z,0.52
2023-12-13T00:14:15.224Z,0.52
2023-12-13T00:15:15.277Z,0.52
2023-12-13T00:16:15.357Z,0.54
2023-12-13T00:17:15.366Z,0.52
2023-12-13T00:18:15.531Z,0.54
2023-12-13T00:19:15.626Z,0.53
2023-12-13T00:20:15.552Z,0.53
2023-12-13T00:21:15.619Z,0.52
2023-12-13T00:22:15.703Z,0.53
2023-12-13T00:23:15.733Z,0.53
2023-12-13T00:24:15.787Z,0.53
2023-12-13T00:25:15.929Z,0.54
2023-12-13T00:26:15.903Z,0.52
2023-12-13T00:27:15.969Z,0.53
2023-12-13T00:28:16.597Z,0.54
2023-12-13T00:29:16.163Z,0.53
2023-12-13T00:30:16.214Z,0.52
2023-12-13T00:31:16.234Z,0.53
2023-12-13T00:32:16.270Z,0.53
2023-12-13T00:33:16.495Z,0.53
2023-12-13T00:34:16.429Z,0.53
2023-12-13T00:35:16.473Z,0.53
2023-12-13T00:36:16.531Z,0.52
2023-12-13T00:37:16.754Z,0.52
2023-12-13T00:38:16.652Z,0.53
2023-12-13T00:39:16.708Z,0.52
2023-12-13T00:40:16.954Z,0.54
2023-12-13T00:41:16.833Z,0.53
2023-12-13T00:42:16.900Z,0.53
2023-12-13T00:43:16.987Z,0.54
2023-12-13T00:44:17.022Z,0.53
2023-12-13T00:45:17.080Z,0.54
2023-12-13T00:46:17.206Z,0.52
2023-12-13T00:47:17.282Z,0.52
2023-12-13T00:48:17.323Z,0.53
2023-12-13T00:49:17.366Z,0.53
2023-12-13T00:50:17.388Z,0.53
2023-12-13T00:51:17.460Z,0.53
2023-12-13T00:52:17.578Z,0.53
2023-12-13T00:53:17.575Z,0.54
2023-12-13T00:54:17.631Z,0.53
2023-12-13T00:55:17.774Z,0.53
2023-12-13T00:56:17.759Z,0.54
2023-12-13T00:57:17.815Z,0.55
2023-12-13T00:58:17.922Z,0.54
2023-12-13T00:59:17.924Z,0.54
2023-12-13T01:00:17.994Z,0.54
2023-12-13T01:01:18.151Z,0.53
2023-12-13T01:02:18.640Z,0.54
2023-12-13T01:03:18.194Z,0.53
2023-12-13T01:04:18.402Z,0.55
2023-12-13T01:05:18.390Z,0.52
2023-12-13T01:06:18.387Z,0.54
2023-12-13T01:07:18.471Z,0.54
2023-12-13T01:08:18.500Z,0.54
2023-12-13T01:09:18.595Z,0.54
2023-12-13T01:10:18.645Z,0.54
2023-12-13T01:11:18.698Z,0.54
2023-12-13T01:12:18.746Z,0.54
2023-12-13T01:13:18.853Z,0.54
2023-12-13T01:14:18.884Z,0.54
2023-12-13T01:15:18.930Z,0.54
2023-12-13T01:16:19.026Z,0.53
2023-12-13T01:17:19.057Z,0.55
2023-12-13T01:18:19.189Z,0.54
2023-12-13T01:19:19.263Z,0.53
2023-12-13T01:20:19.422Z,0.54
2023-12-13T01:21:19.315Z,0.54
2023-12-13T01:22:19.393Z,0.54
2023-12-13T01:23:19.439Z,0.54
2023-12-13T01:24:19.522Z,0.54
2023-12-13T01:25:19.594Z,0.54
2023-12-13T01:26:19.652Z,0.54
2023-12-13T01:27:19.700Z,0.53
2023-12-13T01:28:19.958Z,0.54
2023-12-13T01:29:19.894Z,0.54
2023-12-13T01:30:19.919Z,0.54
2023-12-13T01:31:20.037Z,0.54
2023-12-13T01:32:20.040Z,0.53
2023-12-13T01:33:20.145Z,0.54
2023-12-13T01:34:20.175Z,0.54
2023-12-13T01:35:20.216Z,0.53
2023-12-13T01:36:20.269Z,0.54
2023-12-13T01:37:20.348Z,0.54
2023-12-13T01:38:20.474Z,0.53
2023-12-13T01:39:20.519Z,0.52
2023-12-13T01:40:20.550Z,0.53
2023-12-13T01:41:20.619Z,0.53
2023-12-13T01:42:20.652Z,0.54
2023-12-13T01:43:20.728Z,0.54
2023-12-13T01:44:20.772Z,0.54
2023-12-13T01:45:20.837Z,0.53
2023-12-13T01:46:20.905Z,0.53
2023-12-13T01:47:20.945Z,0.54
2023-12-13T01:48:21.147Z,0.54
2023-12-13T01:49:21.202Z,0.53
2023-12-13T01:50:21.147Z,0.54
2023-12-13T01:51:21.199Z,0.53
2023-12-13T01:52:21.287Z,0.52
2023-12-13T01:53:21.395Z,0.53
2023-12-13T01:54:21.392Z,0.53
2023-12-13T01:55:21.479Z,0.53
2023-12-13T01:56:21.517Z,0.53
2023-12-13T01:57:21.635Z,0.53
2023-12-13T01:58:21.677Z,0.53
2023-12-13T01:59:21.709Z,0.53
2023-12-13T02:00:21.775Z,0.53
2023-12-13T02:01:21.918Z,0.53
2023-12-13T02:02:21.937Z,0.53
2023-12-13T02:03:22.015Z,0.52
2023-12-13T02:04:22.064Z,0.53
2023-12-13T02:05:22.153Z,0.53
2023-12-13T02:06:22.168Z,0.52
2023-12-13T02:07:22.246Z,0.53
2023-12-13T02:08:22.300Z,0.53
2023-12-13T02:09:22.364Z,0.52
2023-12-13T02:10:22.469Z,0.52
2023-12-13T02:11:24.534Z,0.52
2023-12-13T02:12:22.543Z,0.53
2023-12-13T02:13:22.635Z,0.53
2023-12-13T02:14:22.625Z,0.53
2023-12-13T02:15:22.686Z,0.53
2023-12-13T02:16:22.777Z,0.52
2023-12-13T02:17:22.775Z,0.52
2023-12-13T02:18:22.892Z,0.53
2023-12-13T02:19:22.980Z,0.53
2023-12-13T02:20:22.914Z,0.53
2023-12-13T02:21:22.968Z,0.53
2023-12-13T02:22:23.034Z,0.53
2023-12-13T02:23:23.054Z,0.52
2023-12-13T02:24:23.101Z,0.53
2023-12-13T02:25:23.209Z,0.53
2023-12-13T02:26:23.190Z,0.52
2023-12-13T02:27:23.239Z,0.52
2023-12-13T02:28:23.318Z,0.52
2023-12-13T02:29:23.333Z,0.52
2023-12-13T02:30:25.055Z,0.52
2023-12-13T02:31:23.490Z,0.53
2023-12-13T02:32:23.528Z,0.53
2023-12-13T02:33:23.611Z,0.53
2023-12-13T02:34:23.705Z,0.53
2023-12-13T02:35:23.630Z,0.53
2023-12-13T02:36:23.664Z,0.51
2023-12-13T02:37:23.732Z,0.52
2023-12-13T02:38:23.746Z,0.50
2023-12-13T02:39:23.884Z,0.52
2023-12-13T02:40:23.875Z,0.53
2023-12-13T02:41:23.883Z,0.52
2023-12-13T02:42:24.003Z,0.53
2023-12-13T02:43:24.037Z,0.53
2023-12-13T02:44:24.029Z,0.50
2023-12-13T02:45:24.081Z,0.53
2023-12-13T02:46:24.178Z,0.52
2023-12-13T02:47:24.185Z,0.52
2023-12-13T02:48:24.380Z,0.52
2023-12-13T02:49:24.340Z,0.52
2023-12-13T02:50:24.314Z,0.52
2023-12-13T02:51:24.365Z,0.52
2023-12-13T02:52:24.470Z,0.52
2023-12-13T02:53:24.461Z,0.52
2023-12-13T02:54:24.497Z,0.52
2023-12-13T02:55:27.241Z,0.52
2023-12-13T02:56:24.868Z,0.52
2023-12-13T02:57:24.883Z,0.52
2023-12-13T02:58:25.013Z,0.52
2023-12-13T02:59:24.996Z,0.53
2023-12-13T03:00:25.070Z,0.53
2023-12-13T03:01:25.242Z,0.53
2023-12-13T03:02:25.174Z,0.52
2023-12-13T03:03:25.281Z,0.52
2023-12-13T03:04:25.323Z,0.53
2023-12-13T03:05:25.370Z,0.52
2023-12-13T03:06:25.391Z,0.52
2023-12-13T03:07:25.527Z,0.53
2023-12-13T03:08:25.495Z,0.52
2023-12-13T03:09:25.544Z,0.53
2023-12-13T03:10:25.655Z,0.53
2023-12-13T03:11:25.682Z,0.53
2023-12-13T03:12:25.724Z,0.54
2023-12-13T03:13:25.789Z,0.53
2023-12-13T03:14:25.910Z,0.52
2023-12-13T03:15:25.956Z,0.53
2023-12-13T03:16:25.995Z,0.53
2023-12-13T03:17:25.985Z,0.53
2023-12-13T03:18:26.157Z,0.53
2023-12-13T03:19:26.193Z,0.50
2023-12-13T03:20:26.156Z,0.53
2023-12-13T03:21:26.243Z,0.53
2023-12-13T03:22:26.290Z,0.52
2023-12-13T03:23:26.337Z,0.51
2023-12-13T03:24:26.409Z,0.53
2023-12-13T03:25:26.513Z,0.52
2023-12-13T03:26:26.514Z,0.53
2023-12-13T03:27:26.573Z,0.52
2023-12-13T03:28:26.659Z,0.52
2023-12-13T03:29:26.695Z,0.53
2023-12-13T03:30:27.207Z,0.53
2023-12-13T03:31:26.855Z,0.54
2023-12-13T03:32:26.871Z,0.53
2023-12-13T03:33:27.010Z,0.52
2023-12-13T03:34:27.057Z,0.52
2023-12-13T03:35:27.059Z,0.53
2023-12-13T03:36:27.102Z,0.50
2023-12-13T03:37:27.215Z,0.50
2023-12-13T03:38:27.219Z,0.53
2023-12-13T03:39:27.291Z,0.54
2023-12-13T03:40:27.364Z,0.55
2023-12-13T03:41:27.428Z,0.53
2023-12-13T03:42:27.456Z,0.54
2023-12-13T03:43:27.538Z,0.55
2023-12-13T03:44:27.564Z,0.54
2023-12-13T03:45:27.682Z,0.52
2023-12-13T03:46:27.762Z,0.53
2023-12-13T03:47:28.065Z,0.54
2023-12-13T03:48:27.932Z,0.54
2023-12-13T03:49:28.071Z,0.52
2023-12-13T03:50:27.925Z,0.53
2023-12-13T03:51:27.980Z,0.53
2023-12-13T03:52:28.053Z,0.54
2023-12-13T03:53:28.101Z,0.54
2023-12-13T03:54:28.169Z,0.52
2023-12-13T03:55:28.245Z,0.54
2023-12-13T03:56:28.279Z,0.53
2023-12-13T03:57:28.360Z,0.54
2023-12-13T03:58:28.435Z,0.54
2023-12-13T03:59:28.451Z,0.53
2023-12-13T04:00:28.611Z,0.53
2023-12-13T04:01:28.601Z,0.52
2023-12-13T04:02:28.624Z,0.52
2023-12-13T04:03:28.725Z,0.54
2023-12-13T04:04:28.794Z,0.54
2023-12-13T04:05:28.808Z,0.54
2023-12-13T04:06:28.893Z,0.55
2023-12-13T04:07:28.944Z,0.53
2023-12-13T04:08:28.982Z,0.53
2023-12-13T04:09:29.041Z,0.54
2023-12-13T04:10:29.155Z,0.53
2023-12-13T04:11:29.152Z,0.54
2023-12-13T04:12:29.250Z,0.53
2023-12-13T04:13:29.313Z,0.54
2023-12-13T04:14:29.331Z,0.50
2023-12-13T04:15:29.395Z,0.52
2023-12-13T04:16:29.461Z,0.54
2023-12-13T04:17:30.304Z,0.54
2023-12-13T04:18:29.620Z,0.55
2023-12-13T04:19:29.644Z,0.54
2023-12-13T04:20:29.672Z,0.52
2023-12-13T04:21:29.721Z,0.53
2023-12-13T04:22:29.796Z,0.52
2023-12-13T04:23:29.837Z,0.52
2023-12-13T04:24:29.877Z,0.53
2023-12-13T04:25:29.984Z,0.54
2023-12-13T04:26:30.005Z,0.53
2023-12-13T04:27:30.171Z,0.51
2023-12-13T04:28:30.105Z,0.53
2023-12-13T04:29:30.159Z,0.53
2023-12-13T04:30:30.252Z,0.51
2023-12-13T04:31:30.360Z,0.53
2023-12-13T04:32:30.406Z,0.52
2023-12-13T04:33:30.480Z,0.52
2023-12-13T04:34:30.477Z,0.50
2023-12-13T04:35:30.521Z,0.54
2023-12-13T04:36:30.560Z,0.51
2023-12-13T04:37:30.798Z,0.54
2023-12-13T04:38:30.660Z,0.54
2023-12-13T04:39:30.776Z,0.53
2023-12-13T04:40:30.831Z,0.54
2023-12-13T04:41:30.849Z,0.54
2023-12-13T04:42:30.888Z,0.53
2023-12-13T04:43:30.960Z,0.53
2023-12-13T04:44:30.995Z,0.54
2023-12-13T04:45:31.056Z,0.53
2023-12-13T04:46:38.456Z,0.50
2023-12-13T04:47:38.774Z,0.50
2023-12-13T04:48:38.643Z,0.50
2023-12-13T04:49:38.615Z,0.50
2023-12-13T04:50:38.601Z,0.50
2023-12-13T04:51:38.638Z,0.51
2023-12-13T04:52:39.521Z,0.52
2023-12-13T04:53:38.714Z,0.50
2023-12-13T04:54:38.766Z,0.53
2023-12-13T04:55:38.862Z,0.52
2023-12-13T04:56:38.847Z,0.52
2023-12-13T04:57:39.486Z,0.53
2023-12-13T04:58:38.966Z,0.53
2023-12-13T04:59:38.971Z,0.51
2023-12-13T05:00:39.059Z,0.53
2023-12-13T05:01:39.085Z,0.52
2023-12-13T05:02:39.097Z,0.53
2023-12-13T05:03:39.208Z,0.53
2023-12-13T05:04:39.242Z,0.51
2023-12-13T05:05:39.308Z,0.53
2023-12-13T05:06:39.306Z,0.55
2023-12-13T05:07:39.480Z,0.54
2023-12-13T05:08:39.377Z,0.56
2023-12-13T05:09:39.429Z,0.52
2023-12-13T05:10:39.538Z,0.54
2023-12-13T05:11:39.521Z,0.53
2023-12-13T05:12:39.579Z,0.55
2023-12-13T05:13:39.639Z,0.51
2023-12-13T05:14:39.684Z,0.53
2023-12-13T05:15:39.700Z,0.53
2023-12-13T05:16:39.800Z,0.53
2023-12-13T05:17:39.906Z,0.53
2023-12-13T05:18:39.869Z,0.53
2023-12-13T05:19:40.080Z,0.55
2023-12-13T05:20:39.960Z,0.54
2023-12-13T05:21:39.996Z,0.56
2023-12-13T05:22:40.111Z,0.55
2023-12-13T05:23:40.087Z,0.56
2023-12-13T05:24:40.157Z,0.55
2023-12-13T05:25:40.263Z,0.53
2023-12-13T05:26:40.211Z,0.54
2023-12-13T05:27:40.253Z,0.55
2023-12-13T05:28:40.353Z,0.56
2023-12-13T05:29:40.353Z,0.50
2023-12-13T05:30:40.423Z,0.54
2023-12-13T05:31:40.479Z,0.56
2023-12-13T05:32:40.525Z,0.54
2023-12-13T05:33:40.554Z,0.54
2023-12-13T05:34:40.597Z,0.54
2023-12-13T05:35:40.667Z,0.55
2023-12-13T05:36:40.651Z,0.55
2023-12-13T05:37:40.713Z,0.53
2023-12-13T05:38:40.722Z,0.55
2023-12-13T05:39:40.760Z,0.54
2023-12-13T05:40:40.837Z,0.53
2023-12-13T05:41:41.499Z,0.56
2023-12-13T05:42:40.887Z,0.56
2023-12-13T05:43:40.978Z,0.54
2023-12-13T05:44:40.964Z,0.53
2023-12-13T05:45:41.016Z,0.54
2023-12-13T05:46:41.119Z,0.54
2023-12-13T05:47:41.166Z,0.56
2023-12-13T05:48:41.217Z,0.52
2023-12-13T05:49:41.197Z,0.54
2023-12-13T05:50:41.216Z,0.54
2023-12-13T05:51:41.260Z,0.54
2023-12-13T05:52:41.298Z,0.54
2023-12-13T05:53:41.315Z,0.56
2023-12-13T05:54:41.364Z,0.55
2023-12-13T05:55:41.426Z,0.56
2023-12-13T05:56:41.442Z,0.55
2023-12-13T05:57:41.494Z,0.54
2023-12-13T05:58:41.674Z,0.54
2023-12-13T05:59:41.649Z,0.52
2023-12-13T06:00:41.647Z,0.51
2023-12-13T06:01:42.528Z,0.54
2023-12-13T06:02:54.797Z,0.56
2023-12-13T06:03:42.793Z,0.56
2023-12-13T06:04:41.883Z,0.55
2023-12-13T06:05:42.167Z,0.55
2023-12-13T06:06:41.925Z,0.54
2023-12-13T06:07:41.934Z,0.53
2023-12-13T06:08:41.987Z,0.52
2023-12-13T06:09:42.035Z,0.55
2023-12-13T06:10:42.548Z,0.56
2023-12-13T06:11:42.112Z,0.55
2023-12-13T06:12:42.165Z,0.53
2023-12-13T06:13:42.410Z,0.55
2023-12-13T06:14:42.226Z,0.54
2023-12-13T06:15:42.279Z,0.52
2023-12-13T06:16:42.480Z,0.54
2023-12-13T06:17:42.454Z,0.55
2023-12-13T06:18:42.440Z,0.53
2023-12-13T06:19:42.455Z,0.55
2023-12-13T06:20:42.502Z,0.51
2023-12-13T06:21:42.537Z,0.51
2023-12-13T06:22:42.607Z,0.52
2023-12-13T06:23:42.665Z,0.55
2023-12-13T06:24:42.648Z,0.53
2023-12-13T06:25:42.760Z,0.54
2023-12-13T06:26:42.733Z,0.55
2023-12-13T06:27:42.778Z,0.57
2023-12-13T06:28:42.910Z,0.56
2023-12-13T06:29:43.010Z,0.53
2023-12-13T06:30:43.080Z,0.55
2023-12-13T06:31:48.132Z,0.56
2023-12-13T06:32:43.274Z,0.57
2023-12-13T06:33:43.358Z,0.58
2023-12-13T06:34:43.989Z,0.60
2023-12-13T06:35:43.944Z,0.66
2023-12-13T06:36:43.323Z,0.71
2023-12-13T06:37:43.465Z,0.74
2023-12-13T06:38:43.475Z,0.77
2023-12-13T06:39:44.470Z,0.77
2023-12-13T06:40:44.520Z,0.77
2023-12-13T06:41:43.548Z,0.78
2023-12-13T06:42:43.542Z,0.81
2023-12-13T06:43:43.574Z,0.85
2023-12-13T06:44:43.587Z,0.91
2023-12-13T06:45:43.618Z,0.94
2023-12-13T06:46:43.760Z,0.98
2023-12-13T06:47:43.678Z,0.96
2023-12-13T06:48:43.795Z,1.01
2023-12-13T06:49:43.763Z,1.04
2023-12-13T06:50:43.827Z,1.08
2023-12-13T06:51:44.554Z,1.14
2023-12-13T06:52:43.845Z,1.11
2023-12-13T06:53:43.882Z,1.14
2023-12-13T06:54:43.866Z,1.20
2023-12-13T06:55:44.086Z,1.22
2023-12-13T06:56:44.536Z,1.23
2023-12-13T06:57:43.934Z,1.25
2023-12-13T06:58:44.025Z,1.32
2023-12-13T06:59:43.991Z,1.30
2023-12-13T07:00:44.566Z,1.31
2023-12-13T07:01:44.018Z,1.37
2023-12-13T07:02:44.097Z,1.43
2023-12-13T07:03:44.071Z,1.43
2023-12-13T07:04:44.244Z,1.47
2023-12-13T07:05:44.426Z,1.47
2023-12-13T07:06:45.127Z,1.47
2023-12-13T07:07:44.199Z,1.49
2023-12-13T07:08:44.188Z,1.52
2023-12-13T07:09:46.086Z,1.48
2023-12-13T07:10:44.253Z,1.50
2023-12-13T07:11:44.240Z,1.54
2023-12-13T07:12:44.310Z,1.61
2023-12-13T07:13:44.448Z,1.76
2023-12-13T07:14:46.035Z,1.48
2023-12-13T07:15:44.321Z,1.52
2023-12-13T07:16:44.414Z,1.60
2023-12-13T07:17:44.409Z,1.72
2023-12-13T07:18:44.391Z,1.92
2023-12-13T07:19:45.446Z,1.48
2023-12-13T07:20:44.445Z,1.54
2023-12-13T07:21:44.426Z,1.63
2023-12-13T07:22:44.504Z,1.79
2023-12-13T07:23:44.560Z,2.00
2023-12-13T07:24:44.507Z,2.03
2023-12-13T07:25:44.586Z,2.02
2023-12-13T07:26:46.554Z,2.01
2023-12-13T07:27:44.568Z,2.06
2023-12-13T07:28:44.675Z,2.05
2023-12-13T07:29:44.724Z,2.02
2023-12-13T07:30:52.466Z,2.00
2023-12-13T07:31:45.860Z,2.00
2023-12-13T07:32:44.875Z,2.00
2023-12-13T07:33:44.890Z,1.99
2023-12-13T07:34:44.891Z,2.01
2023-12-13T07:35:44.886Z,2.00
2023-12-13T07:36:44.932Z,1.99
2023-12-13T07:37:44.970Z,1.98
2023-12-13T07:38:44.962Z,1.96
2023-12-13T07:39:44.991Z,1.98
2023-12-13T07:40:45.102Z,1.97
2023-12-13T07:41:45.067Z,1.95
2023-12-13T07:42:46.970Z,1.95
2023-12-13T07:43:45.109Z,1.89
2023-12-13T07:44:45.123Z,1.96
2023-12-13T07:45:45.158Z,1.89
2023-12-13T07:46:46.070Z,1.89
2023-12-13T07:47:53.521Z,1.86
2023-12-13T07:48:46.400Z,1.87
2023-12-13T07:49:46.098Z,1.88
2023-12-13T07:50:45.455Z,1.88
2023-12-13T07:51:45.333Z,1.86
2023-12-13T07:52:45.381Z,1.91
2023-12-13T07:53:46.684Z,1.82
2023-12-13T07:54:45.432Z,1.87
2023-12-13T07:55:45.456Z,1.86
2023-12-13T07:56:45.480Z,1.84
2023-12-13T07:57:45.499Z,1.86
2023-12-13T07:58:45.583Z,1.80
2023-12-13T07:59:45.581Z,1.79
2023-12-13T08:00:45.636Z,1.85
2023-12-13T08:01:45.696Z,1.82
2023-12-13T08:02:47.026Z,1.76
2023-12-13T08:03:45.744Z,1.82
2023-12-13T08:04:45.849Z,1.76
2023-12-13T08:05:45.971Z,1.76
2023-12-13T08:06:45.988Z,1.80
2023-12-13T08:07:46.154Z,1.76
2023-12-13T08:08:46.148Z,1.69
2023-12-13T08:09:46.498Z,1.72
2023-12-13T08:10:46.603Z,1.74
2023-12-13T08:11:46.390Z,1.78
2023-12-13T08:12:46.503Z,1.73
2023-12-13T08:13:46.742Z,1.68
2023-12-13T08:14:46.650Z,1.71
2023-12-13T08:15:46.744Z,1.68
2023-12-13T08:16:46.840Z,1.72
2023-12-13T08:17:47.052Z,1.65
2023-12-13T08:18:47.117Z,1.69
2023-12-13T08:19:47.572Z,1.63
2023-12-13T08:20:48.970Z,1.76
2023-12-13T08:21:47.282Z,1.71
2023-12-13T08:22:47.563Z,1.61
2023-12-13T08:23:47.520Z,1.59
2023-12-13T08:24:47.552Z,1.58
2023-12-13T08:25:47.668Z,1.53
2023-12-13T08:26:47.691Z,1.17
2023-12-13T08:27:47.773Z,1.14
2023-12-13T08:28:48.335Z,1.05
2023-12-13T08:29:47.988Z,0.93
2023-12-13T08:30:48.156Z,0.82
2023-12-13T08:31:48.234Z,0.76
2023-12-13T08:32:49.101Z,0.70
2023-12-13T08:33:48.486Z,0.67
2023-12-13T08:34:48.578Z,0.61
2023-12-13T08:35:48.638Z,0.57
2023-12-13T08:36:48.715Z,0.55
2023-12-13T08:37:48.806Z,0.55
2023-12-13T08:38:49.847Z,0.54
2023-12-13T08:39:49.592Z,0.52
2023-12-13T08:40:49.026Z,0.52
2023-12-13T08:41:49.024Z,0.51
2023-12-13T08:42:49.085Z,0.49
2023-12-13T08:43:50.071Z,0.53
2023-12-13T08:44:49.178Z,0.50
2023-12-13T08:45:49.236Z,0.52
2023-12-13T08:46:49.316Z,0.53
2023-12-13T08:47:49.328Z,0.54
2023-12-13T08:48:49.422Z,0.55
2023-12-13T08:49:49.454Z,0.54
2023-12-13T08:50:50.024Z,0.57
2023-12-13T08:51:49.502Z,0.54
2023-12-13T08:52:49.651Z,0.56
2023-12-13T08:53:49.669Z,0.55
2023-12-13T08:54:49.743Z,0.58
2023-12-13T08:55:49.881Z,0.58
2023-12-13T08:56:49.862Z,0.59
2023-12-13T08:57:49.924Z,0.59
2023-12-13T08:58:50.000Z,0.60
2023-12-13T08:59:56.754Z,0.64
2023-12-13T09:00:51.225Z,0.64
2023-12-13T09:01:50.144Z,0.62
2023-12-13T09:02:51.078Z,0.64
2023-12-13T09:03:50.298Z,0.64
2023-12-13T09:04:50.314Z,0.73
2023-12-13T09:05:50.396Z,0.76
2023-12-13T09:06:50.347Z,0.71
2023-12-13T09:07:50.442Z,0.68
2023-12-13T09:08:52.084Z,0.63
2023-12-13T09:09:51.079Z,0.60
2023-12-13T09:10:50.515Z,0.58
2023-12-13T09:11:50.516Z,0.58
2023-12-13T09:12:50.564Z,0.55
2023-12-13T09:13:50.715Z,0.57
2023-12-13T09:14:50.695Z,0.60
2023-12-13T09:15:50.788Z,0.62
2023-12-13T09:16:50.824Z,0.60
2023-12-13T09:17:50.912Z,0.59
2023-12-13T09:18:51.004Z,0.63
2023-12-13T09:19:51.204Z,0.59
2023-12-13T09:20:51.170Z,0.62
2023-12-13T09:21:51.196Z,0.62
2023-12-13T09:22:51.356Z,0.62
2023-12-13T09:23:51.391Z,0.59
2023-12-13T09:24:51.557Z,0.58
2023-12-13T09:25:51.598Z,0.57
2023-12-13T09:26:51.651Z,0.55
2023-12-13T09:27:51.760Z,0.56
2023-12-13T09:28:51.942Z,0.55
2023-12-13T09:29:51.945Z,0.56
2023-12-13T09:30:52.122Z,0.53
2023-12-13T09:31:52.087Z,0.54
2023-12-13T09:32:53.190Z,0.57
2023-12-13T09:33:52.324Z,0.55
2023-12-13T09:34:52.257Z,0.56
2023-12-13T09:35:52.328Z,0.58
2023-12-13T09:36:52.429Z,0.57
2023-12-13T09:37:52.562Z,0.59
2023-12-13T09:38:52.604Z,0.59
2023-12-13T09:39:59.576Z,0.61
2023-12-13T09:40:53.759Z,0.61
2023-12-13T09:41:52.740Z,0.62
2023-12-13T09:42:52.787Z,0.63
2023-12-13T09:43:52.832Z,0.64
2023-12-13T09:44:52.832Z,0.66
2023-12-13T09:45:52.867Z,0.70
2023-12-13T09:46:52.939Z,0.69
2023-12-13T09:47:53.017Z,0.73
2023-12-13T09:48:52.976Z,0.74
2023-12-13T09:49:53.041Z,0.73
2023-12-13T09:50:53.075Z,0.79
2023-12-13T09:51:52.999Z,0.77
2023-12-13T09:52:53.071Z,0.81
2023-12-13T09:53:53.041Z,0.84
2023-12-13T09:54:53.064Z,0.82
2023-12-13T09:55:53.172Z,0.86
2023-12-13T09:56:53.175Z,0.87
2023-12-13T09:57:53.136Z,0.89
2023-12-13T09:58:53.233Z,0.93
2023-12-13T09:59:53.190Z,0.89
2023-12-13T10:00:53.206Z,0.96
2023-12-13T10:01:53.327Z,0.94
2023-12-13T10:02:53.394Z,0.98
2023-12-13T10:03:53.470Z,0.97
2023-12-13T10:04:54.600Z,0.99
2023-12-13T10:05:53.744Z,1.00
2023-12-13T10:06:54.610Z,1.04
2023-12-13T10:07:54.826Z,1.04
2023-12-13T10:08:53.779Z,1.05
2023-12-13T10:09:54.599Z,1.05
2023-12-13T10:10:53.908Z,1.08
2023-12-13T10:11:53.840Z,1.11
2023-12-13T10:12:53.853Z,1.12
2023-12-13T10:13:53.896Z,1.17
2023-12-13T10:14:53.887Z,1.16
2023-12-13T10:15:53.909Z,1.21
2023-12-13T10:17:00.833Z,1.19
2023-12-13T10:17:55.568Z,1.20
2023-12-13T10:18:53.980Z,1.21
2023-12-13T10:19:54.085Z,1.22
2023-12-13T10:20:54.001Z,1.25
2023-12-13T10:21:54.022Z,1.29
2023-12-13T10:22:54.132Z,1.31
2023-12-13T10:23:54.646Z,1.32
2023-12-13T10:24:54.112Z,1.36
2023-12-13T10:25:54.157Z,1.33
2023-12-13T10:26:54.204Z,1.31
2023-12-13T10:27:54.276Z,1.29
2023-12-13T10:28:54.362Z,1.26
2023-12-13T10:29:54.383Z,1.16
2023-12-13T10:30:54.486Z,1.15
2023-12-13T10:31:54.484Z,1.11
2023-12-13T10:32:54.677Z,1.08
2023-12-13T10:33:54.595Z,1.03
2023-12-13T10:34:54.582Z,1.08
2023-12-13T10:35:54.581Z,1.05
2023-12-13T10:36:54.651Z,1.07
2023-12-13T10:37:54.754Z,1.06
2023-12-13T10:38:54.802Z,1.04
2023-12-13T10:39:55.130Z,1.06
2023-12-13T10:40:55.022Z,1.04
2023-12-13T10:41:55.075Z,1.06
2023-12-13T10:42:55.156Z,1.06
2023-12-13T10:43:55.270Z,1.10
2023-12-13T10:44:55.297Z,1.12
2023-12-13T10:45:55.409Z,1.11
2023-12-13T10:46:55.472Z,1.12
2023-12-13T10:47:55.562Z,1.15
2023-12-13T10:48:55.623Z,1.14
2023-12-13T10:49:55.833Z,1.16
2023-12-13T10:50:55.746Z,1.18
2023-12-13T10:51:55.835Z,1.19
2023-12-13T10:52:55.933Z,1.22
2023-12-13T10:53:55.939Z,1.24
2023-12-13T10:54:56.558Z,1.25
2023-12-13T10:55:56.649Z,1.28
2023-12-13T10:56:56.121Z,1.29
2023-12-13T10:57:56.178Z,1.30
2023-12-13T10:58:56.283Z,1.34
2023-12-13T10:59:56.294Z,1.35
2023-12-13T11:00:56.404Z,1.37
2023-12-13T11:01:56.490Z,1.43
2023-12-13T11:02:56.496Z,1.53
2023-12-13T11:03:56.570Z,1.53
2023-12-13T11:04:56.673Z,1.55
2023-12-13T11:05:56.708Z,1.55
2023-12-13T11:06:56.729Z,1.59
2023-12-13T11:07:56.812Z,1.57
2023-12-13T11:08:56.838Z,1.57
2023-12-13T11:09:56.932Z,1.57
2023-12-13T11:10:57.006Z,1.55
2023-12-13T11:11:57.045Z,1.56
2023-12-13T11:12:57.641Z,1.54
2023-12-13T11:13:57.202Z,1.52
2023-12-13T11:14:57.255Z,1.52
2023-12-13T11:15:57.335Z,1.52
2023-12-13T11:16:57.457Z,1.54
2023-12-13T11:17:57.525Z,1.54
2023-12-13T11:18:57.785Z,1.48
2023-12-13T11:19:58.579Z,1.52
2023-12-13T11:20:57.779Z,1.51
2023-12-13T11:21:57.893Z,1.51
2023-12-13T11:22:58.045Z,1.48
2023-12-13T11:23:57.990Z,1.47
2023-12-13T11:24:58.058Z,1.44
2023-12-13T11:25:58.237Z,1.48
2023-12-13T11:26:58.189Z,1.44
2023-12-13T11:27:59.134Z,1.47
2023-12-13T11:28:58.338Z,1.49
2023-12-13T11:29:58.325Z,1.49
2023-12-13T11:30:58.473Z,1.43
2023-12-13T11:31:58.457Z,1.43
2023-12-13T11:32:59.583Z,1.44
2023-12-13T11:33:58.480Z,1.44
2023-12-13T11:34:58.560Z,1.45
2023-12-13T11:35:58.490Z,1.41
2023-12-13T11:36:59.062Z,1.43
2023-12-13T11:37:58.566Z,1.44
2023-12-13T11:38:58.555Z,1.43
2023-12-13T11:39:58.582Z,1.42
2023-12-13T11:40:58.668Z,1.44
2023-12-13T11:41:58.649Z,1.42
2023-12-13T11:42:58.671Z,1.41
2023-12-13T11:43:58.769Z,1.40
2023-12-13T11:44:58.772Z,1.41
2023-12-13T11:45:59.564Z,1.40
2023-12-13T11:46:58.916Z,1.39
2023-12-13T11:47:58.843Z,1.39
2023-12-13T11:48:58.831Z,1.41
2023-12-13T11:49:58.852Z,1.39
2023-12-13T11:50:58.880Z,1.36
2023-12-13T11:51:58.920Z,1.36
2023-12-13T11:52:58.972Z,1.36
2023-12-13T11:53:59.648Z,1.38
2023-12-13T11:54:58.978Z,1.38
2023-12-13T11:55:59.057Z,1.38
2023-12-13T11:56:59.034Z,1.35
2023-12-13T11:57:59.679Z,1.34
2023-12-13T11:58:59.221Z,1.37
2023-12-13T11:59:59.093Z,1.35
2023-12-13T12:00:59.197Z,1.38
2023-12-13T12:01:59.172Z,1.37
2023-12-13T12:02:59.173Z,1.34
2023-12-13T12:03:59.307Z,1.35
2023-12-13T12:04:59.340Z,1.32
2023-12-13T12:05:59.380Z,1.34
2023-12-13T12:06:59.364Z,1.35
2023-12-13T12:07:59.416Z,1.35
2023-12-13T12:08:59.485Z,1.32
2023-12-13T12:09:59.530Z,1.36
2023-12-13T12:10:59.693Z,1.31
2023-12-13T12:11:59.656Z,1.30
2023-12-13T12:12:59.715Z,1.31
2023-12-13T12:13:59.901Z,1.29
2023-12-13T12:14:59.904Z,1.28
2023-12-13T12:15:59.909Z,1.29
2023-12-13T12:17:00.079Z,1.33
2023-12-13T12:18:00.200Z,1.28
2023-12-13T12:19:00.244Z,1.31
2023-12-13T12:20:00.273Z,1.27
2023-12-13T12:21:00.348Z,1.27
2023-12-13T12:22:00.353Z,1.29
2023-12-13T12:23:00.410Z,1.30
2023-12-13T12:24:00.508Z,1.27
2023-12-13T12:25:00.579Z,1.29
2023-12-13T12:26:00.711Z,1.24
2023-12-13T12:27:00.729Z,1.23
2023-12-13T12:28:00.820Z,1.29
2023-12-13T12:29:01.708Z,1.23
2023-12-13T12:30:00.966Z,1.26
2023-12-13T12:31:01.204Z,1.25
2023-12-13T12:32:01.181Z,1.23
2023-12-13T12:33:01.336Z,1.25
2023-12-13T12:34:01.490Z,1.24
2023-12-13T12:35:02.299Z,1.21
2023-12-13T12:36:01.464Z,1.24
2023-12-13T12:37:01.570Z,1.23
2023-12-13T12:38:01.689Z,1.25
2023-12-13T12:39:01.728Z,1.24
2023-12-13T12:40:01.848Z,1.22
2023-12-13T12:41:01.935Z,1.21
2023-12-13T12:42:01.993Z,1.16
2023-12-13T12:43:02.072Z,1.27
2023-12-13T12:44:02.207Z,1.24
2023-12-13T12:45:02.483Z,1.19
2023-12-13T12:46:02.366Z,1.18
2023-12-13T12:47:02.554Z,1.21
2023-12-13T12:48:02.614Z,1.21
2023-12-13T12:49:02.712Z,1.19
2023-12-13T12:50:02.845Z,1.18
2023-12-13T12:51:02.777Z,1.19
2023-12-13T12:52:02.890Z,1.19
2023-12-13T12:53:03.038Z,1.24
2023-12-13T12:54:03.054Z,1.18
2023-12-13T12:55:03.200Z,1.21
2023-12-13T12:56:04.936Z,1.18
2023-12-13T12:57:03.277Z,1.14
2023-12-13T12:58:03.338Z,1.18
2023-12-13T12:59:03.377Z,1.19
2023-12-13T13:00:03.385Z,1.15
2023-12-13T13:01:03.520Z,1.16
2023-12-13T13:02:05.845Z,1.18
2023-12-13T13:03:03.533Z,1.18
2023-12-13T13:04:03.704Z,1.16
2023-12-13T13:05:03.673Z,1.16
2023-12-13T13:06:03.764Z,1.15
2023-12-13T13:07:03.658Z,1.14
2023-12-13T13:08:03.714Z,1.14
2023-12-13T13:09:04.601Z,1.15
2023-12-13T13:10:03.812Z,1.17
2023-12-13T13:11:03.816Z,1.17
2023-12-13T13:12:03.844Z,1.13
2023-12-13T13:13:03.879Z,1.10
2023-12-13T13:14:04.836Z,1.15
2023-12-13T13:15:03.957Z,1.13
2023-12-13T13:16:03.988Z,1.17
2023-12-13T13:17:04.238Z,1.18
2023-12-13T13:18:04.211Z,1.12
2023-12-13T13:19:04.328Z,1.14